createdAt,value
2018-01-22T00:00:53.260Z,6.41
2018-01-22T00:03:21.624Z,6.46
2018-01-22T00:05:50.418Z,6.76
2018-01-22T00:08:18.788Z,6.59
2018-01-22T00:10:47.723Z,6.11
2018-01-22T00:13:16.128Z,6.19
2018-01-22T00:15:44.526Z,6.22
2018-01-22T00:18:13.272Z,6.41
2018-01-22T00:20:41.639Z,6.36
2018-01-22T00:23:10.809Z,6.03
2018-01-22T00:25:39.168Z,5.98
2018-01-22T00:28:08.027Z,6.32
2018-01-22T00:30:36.464Z,6.50
2018-01-22T00:33:04.885Z,6.02
2018-01-22T00:35:33.363Z,6.25
2018-01-22T00:38:01.740Z,6.25
2018-01-22T00:40:30.225Z,6.13
2018-01-22T00:42:58.672Z,5.97
2018-01-22T00:45:27.076Z,6.10
2018-01-22T00:47:55.451Z,5.66
2018-01-22T00:50:23.817Z,6.11
2018-01-22T00:52:52.219Z,6.00
2018-01-22T00:55:20.580Z,5.96
2018-01-22T00:57:48.975Z,5.68
2018-01-22T01:00:17.337Z,6.09
2018-01-22T01:02:45.719Z,6.28
2018-01-22T01:05:14.116Z,6.48
2018-01-22T01:07:42.464Z,5.94
2018-01-22T01:10:10.979Z,5.74
2018-01-22T01:12:39.346Z,6.17
2018-01-22T01:15:07.730Z,6.46
2018-01-22T01:17:36.109Z,6.58
2018-01-22T01:20:04.482Z,6.43
2018-01-22T01:22:32.855Z,6.28
2018-01-22T01:25:01.252Z,6.10
2018-01-22T01:27:29.623Z,6.28
2018-01-22T01:29:57.996Z,5.83
2018-01-22T01:32:26.359Z,5.90
2018-01-22T01:34:54.711Z,6.11
2018-01-22T01:37:23.462Z,5.62
2018-01-22T01:39:51.999Z,5.73
2018-01-22T01:42:20.368Z,5.52
2018-01-22T01:44:48.787Z,5.76
2018-01-22T01:47:17.238Z,5.29
2018-01-22T01:49:45.645Z,5.33
2018-01-22T01:52:14.020Z,5.45
2018-01-22T01:54:42.505Z,5.39
2018-01-22T01:57:10.891Z,5.82
2018-01-22T01:59:39.247Z,5.63
2018-01-22T02:02:07.620Z,5.50
2018-01-22T02:04:35.971Z,5.25
2018-01-22T02:07:04.333Z,5.71
2018-01-22T02:09:33.075Z,5.90
2018-01-22T02:12:01.494Z,5.99
2018-01-22T02:14:29.840Z,5.90
2018-01-22T02:16:58.219Z,5.85
2018-01-22T02:19:26.576Z,5.56
2018-01-22T02:21:54.943Z,5.47
2018-01-22T02:24:23.354Z,5.59
2018-01-22T02:26:51.721Z,5.75
2018-01-22T02:29:20.089Z,5.72
2018-01-22T02:31:48.478Z,5.48
2018-01-22T02:34:17.064Z,5.78
2018-01-22T02:36:45.457Z,5.96
2018-01-22T02:39:13.912Z,5.66
2018-01-22T02:41:42.292Z,5.77
2018-01-22T02:44:10.646Z,6.00
2018-01-22T02:46:39.484Z,5.90
2018-01-22T02:49:07.860Z,6.14
2018-01-22T02:51:36.236Z,6.40
2018-01-22T02:54:04.683Z,5.99
2018-01-22T02:56:33.103Z,6.21
2018-01-22T02:59:01.583Z,5.43
2018-01-22T03:01:29.967Z,5.10
2018-01-22T03:03:58.324Z,5.48
2018-01-22T03:06:26.729Z,5.54
2018-01-22T03:08:55.081Z,6.05
2018-01-22T03:11:23.480Z,5.56
2018-01-22T03:13:51.866Z,5.30
2018-01-22T03:16:20.245Z,5.65
2018-01-22T03:18:48.628Z,5.73
2018-01-22T03:21:17.000Z,5.70
2018-01-22T03:23:45.374Z,5.97
2018-01-22T03:26:13.764Z,5.60
2018-01-22T03:28:42.187Z,5.71
2018-01-22T03:31:10.572Z,6.00
2018-01-22T03:33:38.924Z,5.60
2018-01-22T03:36:07.328Z,5.52
2018-01-22T03:38:35.663Z,5.19
2018-01-22T03:41:04.037Z,5.54
2018-01-22T03:43:32.402Z,5.87
2018-01-22T03:46:00.764Z,5.80
2018-01-22T03:48:29.150Z,5.91
2018-01-22T03:50:57.639Z,6.24
2018-01-22T03:53:25.998Z,6.02
2018-01-22T03:55:54.402Z,5.06
2018-01-22T03:58:22.768Z,4.89
2018-01-22T04:00:51.125Z,5.10
2018-01-22T04:03:19.534Z,5.28
2018-01-22T04:05:47.900Z,5.69
2018-01-22T04:08:16.257Z,5.47
2018-01-22T04:10:44.619Z,5.48
2018-01-22T04:13:12.974Z,5.74
2018-01-22T04:15:41.807Z,5.03
2018-01-22T04:18:10.168Z,5.13
2018-01-22T04:20:38.528Z,5.05
2018-01-22T04:23:07.084Z,5.14
2018-01-22T04:25:35.457Z,5.47
2018-01-22T04:28:03.946Z,5.42
2018-01-22T04:30:32.494Z,5.56
2018-01-22T04:33:00.942Z,5.58
2018-01-22T04:35:29.695Z,5.42
2018-01-22T04:37:58.058Z,5.22
2018-01-22T04:40:26.428Z,5.30
2018-01-22T04:42:54.919Z,5.47
2018-01-22T04:45:23.318Z,5.80
2018-01-22T04:47:51.686Z,5.74
2018-01-22T04:50:20.051Z,5.54
2018-01-22T04:52:48.408Z,5.41
2018-01-22T04:55:16.766Z,4.93
2018-01-22T04:57:45.529Z,4.95
2018-01-22T05:00:13.975Z,5.36
2018-01-22T05:02:42.334Z,4.51
2018-01-22T05:05:10.706Z,4.68
2018-01-22T05:07:39.059Z,5.46
2018-01-22T05:10:07.984Z,5.30
2018-01-22T05:12:36.339Z,5.09
2018-01-22T05:15:05.091Z,4.75
2018-01-22T05:17:33.464Z,4.92
2018-01-22T05:20:01.832Z,5.04
2018-01-22T05:22:30.222Z,4.73
2018-01-22T05:24:58.578Z,4.84
2018-01-22T05:27:26.992Z,5.00
2018-01-22T05:29:55.447Z,5.14
2018-01-22T05:32:23.799Z,5.31
2018-01-22T05:34:52.147Z,5.12
2018-01-22T05:37:21.005Z,5.39
2018-01-22T05:39:49.372Z,4.92
2018-01-22T05:42:17.744Z,5.13
2018-01-22T05:44:46.101Z,4.93
2018-01-22T05:47:14.483Z,5.17
2018-01-22T05:49:42.992Z,5.03
2018-01-22T05:52:11.364Z,5.20
2018-01-22T05:54:39.722Z,5.46
2018-01-22T05:57:08.091Z,5.42
2018-01-22T05:59:36.436Z,5.57
2018-01-22T06:02:04.805Z,5.71
2018-01-22T06:04:33.255Z,5.22
2018-01-22T06:07:01.624Z,4.95
2018-01-22T06:09:30.009Z,4.91
2018-01-22T06:11:58.399Z,5.30
2018-01-22T06:14:26.754Z,5.31
2018-01-22T06:16:55.122Z,5.34
2018-01-22T06:19:23.511Z,5.50
2018-01-22T06:21:51.878Z,4.73
2018-01-22T06:24:20.230Z,5.10
2018-01-22T06:26:48.595Z,5.19
2018-01-22T06:29:16.951Z,5.71
2018-01-22T06:31:45.391Z,5.44
2018-01-22T06:34:13.751Z,5.05
2018-01-22T06:36:42.510Z,5.22
2018-01-22T06:39:10.895Z,4.88
2018-01-22T06:41:39.368Z,4.79
2018-01-22T06:44:07.739Z,5.01
2018-01-22T06:46:36.095Z,4.42
2018-01-22T06:49:04.443Z,4.42
2018-01-22T06:51:33.202Z,4.66
2018-01-22T06:54:01.574Z,4.73
2018-01-22T06:56:29.927Z,4.85
2018-01-22T06:58:58.299Z,4.55
2018-01-22T07:01:26.770Z,4.70
2018-01-22T07:03:55.126Z,5.08
2018-01-22T07:06:23.962Z,5.19
2018-01-22T07:08:52.321Z,4.75
2018-01-22T07:11:20.720Z,5.01
2018-01-22T07:13:49.075Z,4.50
2018-01-22T07:16:17.436Z,4.96
2018-01-22T07:18:46.595Z,4.73
2018-01-22T07:21:14.980Z,5.02
2018-01-22T07:23:43.328Z,5.15
2018-01-22T07:26:11.699Z,5.24
2018-01-22T07:28:40.871Z,5.14
2018-01-22T07:31:09.291Z,5.12
2018-01-22T07:33:37.650Z,5.34
2018-01-22T07:36:06.012Z,4.64
2018-01-22T07:38:34.398Z,5.02
2018-01-22T07:41:02.772Z,5.50
2018-01-22T07:43:31.179Z,4.98
2018-01-22T07:46:00.484Z,5.23
2018-01-22T07:48:28.853Z,4.84
2018-01-22T07:50:57.471Z,5.21
2018-01-22T07:53:25.862Z,5.55
2018-01-22T07:55:54.714Z,5.61
2018-01-22T07:58:23.082Z,5.28
2018-01-22T08:00:51.453Z,5.43
2018-01-22T08:03:19.852Z,4.92
2018-01-22T08:05:48.211Z,5.21
2018-01-22T08:08:16.639Z,4.70
2018-01-22T08:10:45.086Z,4.67
2018-01-22T08:13:13.439Z,5.48
2018-01-22T08:15:41.844Z,5.86
2018-01-22T08:18:10.224Z,5.39
2018-01-22T08:20:38.587Z,5.04
2018-01-22T08:23:06.936Z,5.26
2018-01-22T08:25:35.744Z,5.55
2018-01-22T08:28:04.152Z,5.52
2018-01-22T08:30:32.508Z,5.48
2018-01-22T08:33:00.859Z,5.61
2018-01-22T08:35:29.711Z,5.67
2018-01-22T08:37:58.076Z,5.30
2018-01-22T08:40:26.464Z,5.68
2018-01-22T08:42:54.828Z,5.40
2018-01-22T08:45:23.220Z,5.17
2018-01-22T08:47:51.594Z,5.04
2018-01-22T08:50:20.036Z,5.20
2018-01-22T08:52:48.455Z,5.19
2018-01-22T08:55:16.840Z,5.48
2018-01-22T08:57:45.210Z,5.57
2018-01-22T09:00:13.577Z,5.44
2018-01-22T09:02:41.984Z,5.34
2018-01-22T09:05:10.460Z,5.46
2018-01-22T09:07:38.843Z,5.94
2018-01-22T09:10:07.312Z,6.58
2018-01-22T09:12:35.672Z,6.17
2018-01-22T09:15:04.033Z,5.84
2018-01-22T09:17:32.418Z,6.07
2018-01-22T09:20:00.806Z,6.03
2018-01-22T09:22:29.177Z,6.16
2018-01-22T09:24:57.586Z,6.50
2018-01-22T09:27:26.099Z,6.98
2018-01-22T09:29:54.549Z,7.31
2018-01-22T09:32:22.934Z,7.01
2018-01-22T09:34:51.280Z,7.38
2018-01-22T09:37:19.650Z,7.98
2018-01-22T09:39:47.996Z,8.32
2018-01-22T09:42:16.362Z,9.06
2018-01-22T09:44:44.732Z,8.31
2018-01-22T09:47:13.218Z,8.48
2018-01-22T09:49:41.648Z,8.64
2018-01-22T09:52:10.008Z,8.18
2018-01-22T09:54:38.849Z,7.96
2018-01-22T09:57:07.209Z,7.36
2018-01-22T09:59:35.564Z,7.42
2018-01-22T10:02:03.924Z,7.52
2018-01-22T10:04:32.772Z,7.09
2018-01-22T10:07:01.140Z,7.60
2018-01-22T10:09:29.716Z,7.66
2018-01-22T10:11:58.086Z,7.31
2018-01-22T10:14:26.460Z,6.65
2018-01-22T10:16:54.828Z,7.03
2018-01-22T10:19:23.185Z,6.56
2018-01-22T10:21:51.956Z,6.52
2018-01-22T10:24:20.339Z,6.90
2018-01-22T10:26:48.707Z,6.90
2018-01-22T10:29:17.108Z,6.85
2018-01-22T10:31:45.876Z,7.66
2018-01-22T10:34:14.249Z,7.41
2018-01-22T10:36:42.716Z,7.97
2018-01-22T10:39:11.496Z,7.15
2018-01-22T10:41:39.868Z,7.02
2018-01-22T10:44:08.228Z,7.08
2018-01-22T10:46:36.683Z,6.56
2018-01-22T10:49:05.428Z,6.75
2018-01-22T10:51:33.786Z,6.74
2018-01-22T10:54:02.227Z,6.45
2018-01-22T10:56:31.085Z,6.25
2018-01-22T10:58:59.440Z,7.05
2018-01-22T11:01:27.944Z,7.08
2018-01-22T11:03:56.331Z,7.57
2018-01-22T11:06:24.722Z,7.54
2018-01-22T11:08:53.076Z,7.51
2018-01-22T11:11:21.555Z,7.18
2018-01-22T11:13:49.902Z,7.50
2018-01-22T11:16:18.257Z,7.07
2018-01-22T11:18:47.013Z,6.51
2018-01-22T11:21:15.452Z,6.87
2018-01-22T11:23:43.963Z,7.04
2018-01-22T11:26:12.340Z,6.87
2018-01-22T11:28:40.703Z,6.63
2018-01-22T11:31:09.072Z,6.50
2018-01-22T11:33:37.495Z,6.64
2018-01-22T11:36:05.860Z,7.16
2018-01-22T11:38:34.260Z,7.28
2018-01-22T11:41:02.626Z,7.03
2018-01-22T11:43:30.994Z,7.48
2018-01-22T11:45:59.439Z,6.56
2018-01-22T11:48:27.796Z,6.46
2018-01-22T11:50:56.550Z,6.58
2018-01-22T11:53:24.921Z,6.59
2018-01-22T11:55:53.284Z,6.75
2018-01-22T11:58:21.648Z,7.02
2018-01-22T12:00:50.024Z,7.22
2018-01-22T12:03:18.438Z,7.22
2018-01-22T12:05:46.818Z,7.21
2018-01-22T12:08:15.248Z,6.93
2018-01-22T12:10:44.022Z,7.06
2018-01-22T12:13:12.873Z,6.78
2018-01-22T12:15:41.223Z,7.05
2018-01-22T12:18:09.572Z,7.25
2018-01-22T12:20:37.948Z,6.91
2018-01-22T12:23:06.720Z,7.59
2018-01-22T12:25:35.175Z,7.10
2018-01-22T12:28:03.521Z,7.38
2018-01-22T12:30:31.973Z,7.57
2018-01-22T12:33:00.334Z,7.40
2018-01-22T12:35:28.692Z,7.42
2018-01-22T12:37:57.036Z,7.18
2018-01-22T12:40:25.490Z,7.21
2018-01-22T12:42:53.833Z,6.95
2018-01-22T12:45:22.260Z,7.47
2018-01-22T12:47:50.607Z,7.06
2018-01-22T12:50:18.995Z,6.95
2018-01-22T12:52:47.431Z,7.17
2018-01-22T12:55:15.799Z,6.99
2018-01-22T12:57:44.200Z,6.95
2018-01-22T13:00:12.580Z,6.94
2018-01-22T13:02:40.927Z,6.84
2018-01-22T13:05:09.444Z,6.33
2018-01-22T13:07:37.812Z,6.78
2018-01-22T13:10:06.169Z,7.40
2018-01-22T13:12:34.536Z,7.18
2018-01-22T13:15:02.912Z,7.53
2018-01-22T13:17:31.268Z,7.35
2018-01-22T13:20:00.112Z,7.32
2018-01-22T13:22:28.496Z,7.35
2018-01-22T13:24:56.880Z,7.38
2018-01-22T13:27:25.244Z,7.74
2018-01-22T13:29:53.597Z,7.49
2018-01-22T13:32:21.947Z,7.70
2018-01-22T13:34:50.700Z,6.76
2018-01-22T13:37:19.064Z,6.92
2018-01-22T13:39:47.470Z,6.81
2018-01-22T13:42:15.836Z,6.55
2018-01-22T13:44:44.215Z,7.19
2018-01-22T13:47:12.580Z,7.47
2018-01-22T13:49:40.999Z,7.73
2018-01-22T13:52:09.452Z,6.78
2018-01-22T13:54:37.805Z,6.45
2018-01-22T13:57:06.170Z,6.44
2018-01-22T13:59:34.517Z,6.98
2018-01-22T14:02:02.996Z,7.25
2018-01-22T14:04:31.452Z,7.78
2018-01-22T14:06:59.812Z,7.96
2018-01-22T14:09:28.164Z,7.81
2018-01-22T14:11:56.595Z,7.22
2018-01-22T14:14:24.939Z,7.49
2018-01-22T14:16:53.301Z,7.43
2018-01-22T14:19:21.701Z,7.00
2018-01-22T14:21:50.051Z,7.36
2018-01-22T14:24:18.888Z,6.67
2018-01-22T14:26:47.298Z,6.62
2018-01-22T14:29:15.664Z,6.14
2018-01-22T14:31:44.136Z,6.16
2018-01-22T14:34:12.484Z,6.19
2018-01-22T14:36:40.882Z,6.45
2018-01-22T14:39:09.232Z,6.41
2018-01-22T14:41:37.640Z,6.60
2018-01-22T14:44:06.020Z,6.61
2018-01-22T14:46:34.413Z,6.97
2018-01-22T14:49:02.760Z,7.10
2018-01-22T14:51:31.152Z,7.34
2018-01-22T14:53:59.507Z,7.31
2018-01-22T14:56:27.873Z,7.34
2018-01-22T14:58:56.230Z,7.46
2018-01-22T15:01:24.628Z,6.81
2018-01-22T15:03:53.606Z,6.88
2018-01-22T15:06:22.448Z,6.97
2018-01-22T15:08:50.800Z,6.75
2018-01-22T15:11:19.156Z,6.31
2018-01-22T15:13:48.101Z,6.77
2018-01-22T15:16:16.456Z,7.07
2018-01-22T15:18:44.853Z,7.02
2018-01-22T15:21:13.212Z,6.69
2018-01-22T15:23:41.569Z,6.87
2018-01-22T15:26:10.412Z,6.83
2018-01-22T15:28:38.779Z,6.94
2018-01-22T15:31:07.145Z,6.85
2018-01-22T15:33:35.509Z,7.04
2018-01-22T15:36:03.885Z,6.71
2018-01-22T15:38:32.241Z,6.20
2018-01-22T15:41:01.006Z,6.09
2018-01-22T15:43:29.356Z,5.74
2018-01-22T15:45:57.719Z,6.03
2018-01-22T15:48:26.185Z,5.38
2018-01-22T15:50:54.531Z,5.46
2018-01-22T15:53:22.979Z,5.57
2018-01-22T15:55:51.372Z,6.05
2018-01-22T15:58:19.747Z,6.02
2018-01-22T16:00:48.112Z,6.14
2018-01-22T16:03:16.489Z,6.50
2018-01-22T16:05:44.852Z,5.99
2018-01-22T16:08:13.261Z,5.92
2018-01-22T16:10:41.728Z,5.75
2018-01-22T16:13:10.192Z,6.14
2018-01-22T16:15:38.564Z,6.13
2018-01-22T16:18:07.042Z,6.33
2018-01-22T16:20:35.457Z,6.33
2018-01-22T16:23:03.828Z,6.10
2018-01-22T16:25:32.221Z,5.71
2018-01-22T16:28:00.582Z,5.52
2018-01-22T16:30:29.080Z,5.43
2018-01-22T16:32:57.432Z,5.45
2018-01-22T16:35:25.811Z,5.62
2018-01-22T16:37:54.175Z,6.24
2018-01-22T16:40:22.544Z,5.68
2018-01-22T16:42:50.972Z,5.97
2018-01-22T16:45:19.351Z,5.91
2018-01-22T16:47:53.247Z,5.76
2018-01-22T16:50:21.602Z,6.04
2018-01-22T16:52:49.976Z,6.60
2018-01-22T16:55:18.389Z,6.55
2018-01-22T16:57:46.751Z,6.07
2018-01-22T17:00:15.118Z,5.74
2018-01-22T17:02:43.475Z,5.44
2018-01-22T17:05:12.239Z,6.07
2018-01-22T17:07:40.600Z,6.23
2018-01-22T17:10:08.992Z,5.56
2018-01-22T17:12:37.460Z,5.67
2018-01-22T17:15:05.827Z,5.45
2018-01-22T17:17:34.233Z,5.53
2018-01-22T17:20:02.603Z,5.69
2018-01-22T17:22:30.990Z,5.24
2018-01-22T17:24:59.360Z,5.36
2018-01-22T17:27:27.739Z,5.74
2018-01-22T17:29:56.119Z,5.58
2018-01-22T17:32:24.508Z,5.40
2018-01-22T17:34:52.860Z,5.20
2018-01-22T17:37:21.239Z,5.27
2018-01-22T17:39:49.632Z,5.11
2018-01-22T17:42:18.000Z,5.12
2018-01-22T17:44:46.551Z,5.35
2018-01-22T17:47:14.957Z,5.87
2018-01-22T17:49:43.320Z,5.84
2018-01-22T17:52:11.686Z,5.83
2018-01-22T17:54:40.041Z,5.41
2018-01-22T17:57:08.858Z,5.54
2018-01-22T17:59:37.219Z,5.98
2018-01-22T18:02:05.584Z,5.57
2018-01-22T18:04:34.553Z,5.54
2018-01-22T18:07:02.920Z,5.61
2018-01-22T18:09:31.515Z,5.61
2018-01-22T18:11:59.948Z,5.79
2018-01-22T18:14:28.304Z,5.57
2018-01-22T18:16:56.672Z,5.89
2018-01-22T18:19:25.945Z,5.53
2018-01-22T18:21:54.336Z,5.39
2018-01-22T18:24:22.688Z,5.78
2018-01-22T18:26:51.079Z,5.81
2018-01-22T18:29:19.472Z,5.55
2018-01-22T18:31:47.832Z,5.64
2018-01-22T18:34:16.188Z,5.60
2018-01-22T18:36:44.580Z,5.77
2018-01-22T18:39:12.936Z,5.49
2018-01-22T18:41:41.347Z,4.85
2018-01-22T18:44:09.724Z,5.01
2018-01-22T18:46:38.090Z,5.08
2018-01-22T18:49:06.445Z,4.95
2018-01-22T18:51:34.861Z,4.95
2018-01-22T18:54:03.223Z,5.18
2018-01-22T18:56:31.616Z,5.02
2018-01-22T18:58:59.983Z,4.91
2018-01-22T19:01:28.363Z,5.10
2018-01-22T19:03:56.729Z,5.37
2018-01-22T19:06:25.138Z,5.69
2018-01-22T19:08:53.532Z,5.40
2018-01-22T19:11:21.905Z,6.05
2018-01-22T19:13:50.259Z,5.67
2018-01-22T19:16:18.641Z,5.47
2018-01-22T19:18:47.000Z,5.61
2018-01-22T19:21:15.359Z,5.26
2018-01-22T19:23:43.812Z,5.43
2018-01-22T19:26:12.265Z,5.54
2018-01-22T19:28:40.672Z,5.18
2018-01-22T19:31:09.535Z,5.46
2018-01-22T19:33:37.894Z,5.73
2018-01-22T19:36:06.280Z,5.30
2018-01-22T19:38:34.741Z,5.21
2018-01-22T19:41:03.104Z,5.41
2018-01-22T19:43:31.493Z,5.70
2018-01-22T19:45:59.923Z,5.74
2018-01-22T19:48:28.380Z,5.38
2018-01-22T19:50:56.753Z,5.48
2018-01-22T19:53:25.131Z,5.39
2018-01-22T19:55:53.496Z,5.44
2018-01-22T19:58:22.899Z,5.34
2018-01-22T20:00:51.742Z,5.92
2018-01-22T20:03:20.679Z,5.81
2018-01-22T20:05:50.390Z,6.21
2018-01-22T20:08:19.076Z,5.96
2018-01-22T20:10:47.557Z,5.69
2018-01-22T20:13:16.038Z,5.16
2018-01-22T20:15:44.845Z,5.68
2018-01-22T20:18:14.332Z,5.88
2018-01-22T20:20:43.178Z,5.79
2018-01-22T20:23:12.143Z,5.75
2018-01-22T20:25:41.111Z,5.94
2018-01-22T20:28:09.694Z,5.70
2018-01-22T20:30:41.244Z,5.90
2018-01-22T20:33:09.989Z,5.89
2018-01-22T20:35:39.433Z,5.35
2018-01-22T20:38:09.314Z,5.44
2018-01-22T20:40:38.759Z,5.43
2018-01-22T20:43:07.436Z,5.58
2018-01-22T20:45:38.449Z,5.19
2018-01-22T20:48:07.664Z,5.60
2018-01-22T20:50:36.347Z,5.95
2018-01-22T20:53:04.997Z,6.13
2018-01-22T20:55:34.030Z,6.47
2018-01-22T20:58:02.572Z,5.88
2018-01-22T21:00:34.799Z,5.88
2018-01-22T21:03:04.708Z,5.73
2018-01-22T21:05:33.189Z,5.67
2018-01-22T21:08:01.789Z,5.74
2018-01-22T21:10:31.894Z,6.18
2018-01-22T21:13:00.383Z,6.30
2018-01-22T21:15:29.472Z,6.10
2018-01-22T21:17:58.538Z,5.76
2018-01-22T21:20:29.976Z,6.05
2018-01-22T21:22:59.543Z,6.42
2018-01-22T21:25:29.339Z,6.39
2018-01-22T21:27:58.009Z,6.68
2018-01-22T21:30:28.007Z,6.65
2018-01-22T21:32:56.440Z,6.98
2018-01-22T21:35:24.819Z,6.62
2018-01-22T21:37:53.226Z,6.58
2018-01-22T21:40:21.590Z,6.41
2018-01-22T21:42:49.936Z,6.45
2018-01-22T21:45:18.365Z,5.82
2018-01-22T21:47:46.823Z,5.66
2018-01-22T21:50:15.188Z,6.05
2018-01-22T21:52:43.556Z,5.99
2018-01-22T21:55:11.977Z,5.47
2018-01-22T21:57:40.339Z,5.83
2018-01-22T22:00:08.715Z,6.03
2018-01-22T22:02:37.086Z,6.32
2018-01-22T22:05:05.442Z,5.95
2018-01-22T22:07:33.846Z,6.21
2018-01-22T22:10:02.211Z,6.24
2018-01-22T22:12:30.716Z,6.12
2018-01-22T22:14:59.405Z,6.38
2018-01-22T22:17:27.850Z,6.73
2018-01-22T22:19:56.200Z,6.22
2018-01-22T22:22:24.971Z,6.15
2018-01-22T22:24:53.389Z,6.08
2018-01-22T22:27:21.790Z,6.09
2018-01-22T22:29:50.157Z,6.43
2018-01-22T22:32:18.581Z,6.39
2018-01-22T22:34:46.936Z,6.25
2018-01-22T22:37:15.349Z,6.38
2018-01-22T22:39:43.700Z,5.70
2018-01-22T22:42:12.068Z,5.60
2018-01-22T22:44:40.436Z,5.60
2018-01-22T22:47:08.792Z,5.90
2018-01-22T22:49:37.312Z,6.12
2018-01-22T22:52:05.683Z,6.03
2018-01-22T22:54:34.119Z,5.94
2018-01-22T22:57:02.487Z,6.41
2018-01-22T22:59:31.341Z,6.63
2018-01-22T23:01:59.708Z,6.27
2018-01-22T23:04:28.071Z,6.45
2018-01-22T23:06:56.476Z,6.69
2018-01-22T23:09:24.852Z,6.83
2018-01-22T23:11:53.223Z,6.84
2018-01-22T23:14:21.604Z,6.57
2018-01-22T23:16:49.970Z,6.15
2018-01-22T23:19:18.340Z,6.69
2018-01-22T23:21:46.704Z,6.70
2018-01-22T23:24:16.644Z,6.65
2018-01-22T23:26:45.011Z,6.88
2018-01-22T23:29:13.386Z,6.96
2018-01-22T23:31:41.780Z,7.02
2018-01-22T23:34:10.677Z,7.07
2018-01-22T23:36:39.076Z,7.25
2018-01-22T23:39:07.444Z,6.97
2018-01-22T23:41:35.799Z,6.99
2018-01-22T23:44:04.339Z,6.73
2018-01-22T23:46:33.094Z,6.57
2018-01-22T23:49:01.684Z,6.56
2018-01-22T23:51:30.071Z,6.69
2018-01-22T23:53:58.427Z,6.56
2018-01-22T23:56:26.792Z,6.45
2018-01-22T23:58:55.155Z,6.75
